Time;durP1;ratioP1;P1;durP2;ratioP2;P2;SDS_P1;SDS_P2;PMS_P1;PMS_P2;Temp;Humidity;BMP_temperature;BMP_pressure;BME280_temperature;BME280_humidity;BME280_pressure;Samples;Min_cycle;Max_cycle;Signal;HPM_P1;HPM_P2
2023/08/27 00:00:21;;;;;;;16.95;15.07;;;14.90;99.90;;;;;;4855640;29;20784;-70
2023/08/27 00:02:47;;;;;;;20.17;16.33;;;14.90;99.90;;;;;;4866340;29;20642;-71
2023/08/27 00:05:13;;;;;;;22.40;16.45;;;14.90;99.90;;;;;;4859986;29;20189;-71
2023/08/27 00:07:39;;;;;;;18.20;15.93;;;14.90;99.90;;;;;;4861184;29;20295;-71
2023/08/27 00:10:06;;;;;;;20.55;15.38;;;14.90;99.90;;;;;;4860386;29;20197;-73
2023/08/27 00:12:31;;;;;;;22.52;16.08;;;14.90;99.90;;;;;;4861725;29;20277;-72
2023/08/27 00:14:57;;;;;;;17.80;15.52;;;14.90;99.90;;;;;;4858747;29;20290;-72
2023/08/27 00:17:24;;;;;;;19.08;16.20;;;14.90;99.90;;;;;;4861309;29;20194;-70
2023/08/27 00:19:50;;;;;;;19.20;16.77;;;14.90;99.90;;;;;;4859287;29;20194;-71
2023/08/27 00:22:16;;;;;;;19.00;15.73;;;14.90;99.90;;;;;;4860844;29;20233;-71
2023/08/27 00:24:42;;;;;;;19.13;16.10;;;14.90;99.90;;;;;;4859700;29;20280;-70
2023/08/27 00:27:08;;;;;;;22.00;16.38;;;14.90;99.90;;;;;;4854848;29;20706;-70
2023/08/27 00:29:34;;;;;;;20.90;16.65;;;14.90;99.90;;;;;;4859019;29;20195;-70
2023/08/27 00:32:00;;;;;;;22.23;16.30;;;14.90;99.90;;;;;;4854377;29;20202;-72
2023/08/27 00:34:34;;;;;;;17.63;15.40;;;14.80;99.90;;;;;;4857894;29;20213;-70
2023/08/27 00:37:01;;;;;;;21.23;16.45;;;14.80;99.90;;;;;;4852820;29;20671;-71
2023/08/27 00:39:28;;;;;;;22.15;16.65;;;14.90;99.90;;;;;;4858226;29;20190;-70
2023/08/27 00:41:54;;;;;;;21.70;17.08;;;14.80;99.90;;;;;;4860942;29;20667;-71
2023/08/27 00:44:20;;;;;;;18.45;15.85;;;14.90;99.90;;;;;;4857723;29;20724;-71
2023/08/27 00:46:48;;;;;;;22.58;16.85;;;14.80;99.90;;;;;;4853228;29;20304;-71
2023/08/27 00:49:15;;;;;;;19.10;15.70;;;14.80;99.90;;;;;;4858737;29;20193;-71
2023/08/27 00:51:44;;;;;;;18.10;16.17;;;14.80;99.90;;;;;;4868115;29;20271;-69
2023/08/27 00:54:11;;;;;;;25.40;17.33;;;14.80;99.90;;;;;;4853482;29;20208;-70
2023/08/27 00:56:39;;;;;;;18.95;16.92;;;14.80;99.90;;;;;;4860073;29;20189;-69
2023/08/27 00:59:05;;;;;;;20.63;18.20;;;14.80;99.90;;;;;;4857576;29;20250;-69
2023/08/27 01:01:32;;;;;;;19.60;16.88;;;14.80;99.90;;;;;;4851251;29;20199;-71
2023/08/27 01:03:58;;;;;;;18.65;16.60;;;14.80;99.90;;;;;;4856978;29;20200;-70
2023/08/27 01:06:24;;;;;;;24.25;20.48;;;14.70;99.90;;;;;;4867203;29;20213;-70
2023/08/27 01:09:20;;;;;;;17.13;15.30;;;14.70;99.90;;;;;;4859739;29;20210;-71
2023/08/27 01:12:18;;;;;;;17.67;15.27;;;14.70;99.90;;;;;;4852808;29;20190;-70
2023/08/27 01:14:48;;;;;;;17.77;15.52;;;14.70;99.90;;;;;;4869034;29;20194;-70
2023/08/27 01:17:16;;;;;;;18.98;15.70;;;14.70;99.90;;;;;;4854037;29;20265;-70
2023/08/27 01:19:42;;;;;;;18.50;16.38;;;14.70;99.90;;;;;;4855334;29;20559;-69
2023/08/27 01:22:08;;;;;;;21.35;16.55;;;14.70;99.90;;;;;;4854155;29;20238;-70
2023/08/27 01:24:34;;;;;;;17.58;14.63;;;14.70;99.90;;;;;;4866639;29;20194;-70
2023/08/27 01:27:05;;;;;;;17.27;14.90;;;14.70;99.90;;;;;;4839320;29;20228;-70
2023/08/27 01:29:40;;;;;;;18.92;15.07;;;14.80;99.90;;;;;;4856908;29;20204;-70
2023/08/27 01:32:22;;;;;;;19.52;14.85;;;14.70;99.90;;;;;;4866821;29;20292;-70
2023/08/27 01:34:48;;;;;;;17.08;15.10;;;14.80;99.90;;;;;;4858299;29;20236;-70
2023/08/27 01:37:15;;;;;;;18.85;14.35;;;14.70;99.90;;;;;;4858734;29;20205;-70
2023/08/27 01:39:44;;;;;;;21.38;15.32;;;14.70;99.90;;;;;;4856183;29;20659;-71
2023/08/27 01:42:11;;;;;;;19.88;14.43;;;14.70;99.90;;;;;;4869879;29;20534;-70
2023/08/27 01:44:37;;;;;;;20.40;14.60;;;14.70;99.90;;;;;;4856247;29;20687;-71
2023/08/27 01:47:04;;;;;;;18.63;14.55;;;14.70;99.90;;;;;;4868835;29;20253;-73
2023/08/27 01:49:30;;;;;;;16.73;14.40;;;14.70;99.90;;;;;;4857511;29;20285;-72
2023/08/27 01:51:56;;;;;;;16.73;14.98;;;14.70;99.90;;;;;;4859569;29;20190;-71
2023/08/27 01:54:22;;;;;;;15.73;14.18;;;14.70;99.90;;;;;;4840517;29;20575;-71
2023/08/27 01:56:50;;;;;;;17.55;13.98;;;14.70;99.90;;;;;;4854419;29;20242;-70
2023/08/27 01:59:16;;;;;;;15.70;14.02;;;14.80;99.90;;;;;;4856893;29;20207;-70
2023/08/27 02:01:43;;;;;;;19.45;14.23;;;14.70;99.90;;;;;;4852399;29;20194;-71
2023/08/27 02:04:09;;;;;;;19.52;13.32;;;14.70;99.90;;;;;;4858055;29;20205;-70
2023/08/27 02:06:35;;;;;;;17.08;14.02;;;14.70;99.90;;;;;;4857445;29;20593;-70
2023/08/27 02:09:01;;;;;;;15.98;12.93;;;14.70;99.90;;;;;;4841152;29;20230;-69
2023/08/27 02:11:27;;;;;;;18.92;13.52;;;14.70;99.90;;;;;;4857391;29;20194;-70
2023/08/27 02:13:53;;;;;;;15.18;12.90;;;14.70;99.90;;;;;;4858963;29;20205;-70
2023/08/27 02:16:19;;;;;;;17.20;13.65;;;14.60;99.90;;;;;;4853554;29;20304;-70
2023/08/27 02:18:45;;;;;;;17.35;13.48;;;14.60;99.90;;;;;;4872922;29;20264;-70
2023/08/27 02:21:11;;;;;;;15.88;13.77;;;14.60;99.90;;;;;;4854169;29;20282;-70
2023/08/27 02:23:37;;;;;;;16.40;13.30;;;14.60;99.90;;;;;;4858887;29;20237;-71
2023/08/27 02:26:03;;;;;;;17.15;13.85;;;14.60;99.90;;;;;;4854190;29;20218;-71
2023/08/27 02:28:29;;;;;;;17.00;13.48;;;14.60;99.90;;;;;;4860714;29;20208;-71
2023/08/27 02:30:56;;;;;;;16.20;13.07;;;14.60;99.90;;;;;;4853822;29;20220;-72
2023/08/27 02:33:22;;;;;;;17.75;13.48;;;14.60;99.90;;;;;;4860809;29;20569;-71
2023/08/27 02:35:49;;;;;;;17.25;14.48;;;14.60;99.90;;;;;;4827533;29;20593;-72
2023/08/27 02:38:15;;;;;;;17.27;14.15;;;14.50;99.90;;;;;;4861726;29;20209;-69
2023/08/27 02:40:41;;;;;;;16.45;14.32;;;14.50;99.90;;;;;;4856789;29;20190;-71
2023/08/27 02:43:07;;;;;;;18.48;15.25;;;14.50;99.90;;;;;;4866671;29;20562;-69
2023/08/27 02:45:33;;;;;;;18.05;15.93;;;14.40;99.90;;;;;;4854247;29;20201;-71
2023/08/27 02:47:59;;;;;;;18.65;16.63;;;14.40;99.90;;;;;;4842947;29;20544;-71
2023/08/27 02:50:25;;;;;;;18.08;16.08;;;14.40;99.90;;;;;;4860650;29;20197;-70
2023/08/27 02:52:51;;;;;;;19.70;16.40;;;14.40;99.90;;;;;;4876543;29;20197;-71
2023/08/27 02:55:17;;;;;;;22.20;15.77;;;14.40;99.90;;;;;;4860370;29;20205;-72
2023/08/27 02:57:43;;;;;;;18.63;16.15;;;14.30;99.90;;;;;;4861433;29;20268;-70
2023/08/27 03:00:09;;;;;;;17.40;14.90;;;14.30;99.90;;;;;;4857640;29;20193;-71
2023/08/27 03:02:37;;;;;;;18.15;14.57;;;14.30;99.90;;;;;;4873495;29;20230;-73
2023/08/27 03:05:07;;;;;;;21.00;14.60;;;14.30;99.90;;;;;;4859222;29;20665;-70
2023/08/27 03:07:33;;;;;;;17.67;14.20;;;14.20;99.90;;;;;;4846122;29;20214;-71
2023/08/27 03:09:58;;;;;;;16.60;14.82;;;14.30;99.90;;;;;;4859379;29;20206;-71
2023/08/27 03:12:24;;;;;;;18.20;15.07;;;14.20;99.90;;;;;;4863803;29;20181;-71
2023/08/27 03:14:50;;;;;;;22.30;15.98;;;14.20;99.90;;;;;;4855990;29;20764;-72
2023/08/27 03:17:16;;;;;;;20.05;16.10;;;14.20;99.90;;;;;;4860126;29;20206;-70
2023/08/27 03:19:42;;;;;;;18.88;15.98;;;14.20;99.90;;;;;;4839453;29;20634;-71
2023/08/27 03:22:09;;;;;;;24.13;16.48;;;14.20;99.90;;;;;;4860555;29;20201;-70
2023/08/27 03:24:36;;;;;;;22.38;16.23;;;14.20;99.90;;;;;;4854622;29;20246;-71
2023/08/27 03:27:02;;;;;;;18.38;16.10;;;14.20;99.90;;;;;;4857533;29;20210;-71
2023/08/27 03:29:29;;;;;;;19.63;15.18;;;14.20;99.90;;;;;;4857940;29;20206;-72
2023/08/27 03:31:55;;;;;;;19.83;16.25;;;14.20;99.90;;;;;;4861095;29;20202;-71
2023/08/27 03:34:21;;;;;;;19.00;16.70;;;14.20;99.90;;;;;;4857245;29;20744;-71
2023/08/27 03:36:47;;;;;;;18.88;15.52;;;14.20;99.90;;;;;;4867851;29;20193;-72
2023/08/27 03:39:14;;;;;;;18.08;16.05;;;14.30;99.90;;;;;;4856210;29;20216;-71
2023/08/27 03:41:40;;;;;;;18.05;16.15;;;14.30;99.90;;;;;;4855377;29;20285;-72
2023/08/27 03:44:06;;;;;;;19.70;15.85;;;14.30;99.90;;;;;;4860315;29;20198;-72
2023/08/27 03:46:32;;;;;;;21.83;15.93;;;14.30;99.90;;;;;;4860220;29;20721;-72
2023/08/27 03:49:02;;;;;;;16.75;14.23;;;14.40;99.90;;;;;;4859292;29;20198;-72
2023/08/27 03:51:29;;;;;;;18.15;15.50;;;14.30;99.90;;;;;;4863065;29;20265;-74
2023/08/27 03:53:57;;;;;;;17.63;15.80;;;14.40;99.90;;;;;;4859206;29;20379;-73
2023/08/27 03:56:23;;;;;;;17.02;14.85;;;14.50;99.90;;;;;;4860633;29;20202;-73
2023/08/27 03:58:49;;;;;;;17.73;14.88;;;14.50;99.90;;;;;;4859029;29;20643;-73
2023/08/27 04:01:15;;;;;;;19.85;14.52;;;14.50;99.90;;;;;;4864667;29;20233;-73
2023/08/27 04:03:42;;;;;;;16.90;14.57;;;14.60;99.90;;;;;;4857853;29;20741;-71
2023/08/27 04:06:10;;;;;;;21.75;14.10;;;14.60;99.90;;;;;;4856064;29;20634;-71
2023/08/27 04:08:37;;;;;;;18.88;14.38;;;14.60;99.90;;;;;;4860030;29;20244;-72
2023/08/27 04:11:04;;;;;;;17.27;13.93;;;14.70;99.90;;;;;;4858082;29;20678;-71
2023/08/27 04:13:31;;;;;;;17.27;14.35;;;14.70;99.90;;;;;;4860460;29;20670;-71
2023/08/27 04:16:02;;;;;;;18.17;14.32;;;14.70;99.90;;;;;;4860717;29;20188;-70
2023/08/27 04:18:29;;;;;;;14.73;12.38;;;14.80;99.90;;;;;;4859462;29;20194;-71
2023/08/27 04:20:56;;;;;;;17.02;13.45;;;14.80;99.90;;;;;;4818719;29;20253;-71
2023/08/27 04:23:22;;;;;;;15.95;12.50;;;14.80;99.90;;;;;;4859786;29;20761;-71
2023/08/27 04:25:48;;;;;;;20.60;13.98;;;14.80;99.90;;;;;;4855101;29;20213;-71
2023/08/27 04:28:15;;;;;;;17.23;13.85;;;14.80;99.90;;;;;;4856442;29;20205;-72
2023/08/27 04:30:42;;;;;;;16.55;14.32;;;14.80;99.90;;;;;;4854658;29;20212;-71
2023/08/27 04:33:10;;;;;;;19.73;13.80;;;14.80;99.90;;;;;;4859370;29;20226;-69
2023/08/27 04:35:36;;;;;;;17.25;12.90;;;14.80;99.90;;;;;;4856304;29;20190;-71
2023/08/27 04:38:06;;;;;;;15.80;13.50;;;14.80;99.90;;;;;;4858681;29;20284;-71
2023/08/27 04:40:32;;;;;;;18.30;12.80;;;14.80;99.90;;;;;;4856058;29;20203;-71
2023/08/27 04:42:58;;;;;;;14.48;12.95;;;14.70;99.90;;;;;;4872650;29;20225;-72
2023/08/27 04:45:24;;;;;;;20.48;13.20;;;14.70;99.90;;;;;;4859221;29;20198;-70
2023/08/27 04:47:50;;;;;;;16.38;13.20;;;14.70;99.90;;;;;;4861238;29;20236;-71
2023/08/27 04:50:16;;;;;;;17.85;13.40;;;14.70;99.90;;;;;;4852857;29;20548;-70
2023/08/27 04:52:42;;;;;;;19.00;13.48;;;14.70;99.90;;;;;;4860051;29;20193;-70
2023/08/27 04:55:09;;;;;;;15.13;13.27;;;14.70;99.90;;;;;;4854407;29;20241;-70
2023/08/27 04:57:36;;;;;;;15.25;13.32;;;14.70;99.90;;;;;;4859134;29;20196;-70
2023/08/27 05:00:09;;;;;;;16.42;13.90;;;14.70;99.90;;;;;;4856767;29;20190;-71
2023/08/27 05:02:35;;;;;;;18.67;13.65;;;14.70;99.90;;;;;;4857979;29;20189;-70
2023/08/27 05:05:03;;;;;;;18.10;13.48;;;14.60;99.90;;;;;;4866960;29;20269;-72
2023/08/27 05:07:29;;;;;;;14.65;12.77;;;14.60;99.90;;;;;;4853951;29;20210;-72
2023/08/27 05:09:55;;;;;;;18.05;13.60;;;14.60;99.90;;;;;;4871685;29;20198;-72
2023/08/27 05:12:23;;;;;;;15.30;13.05;;;14.60;99.90;;;;;;4858686;29;20202;-72
2023/08/27 05:14:48;;;;;;;14.38;12.70;;;14.60;99.90;;;;;;4856104;29;20220;-72
2023/08/27 05:17:16;;;;;;;16.02;13.90;;;14.60;99.90;;;;;;4854913;29;20194;-71
2023/08/27 05:19:42;;;;;;;15.15;13.18;;;14.60;99.90;;;;;;4871006;29;20190;-72
2023/08/27 05:22:08;;;;;;;14.35;12.82;;;14.60;99.90;;;;;;4859362;29;20535;-71
2023/08/27 05:24:35;;;;;;;14.70;13.15;;;14.60;99.90;;;;;;4859627;29;21071;-71
2023/08/27 05:27:02;;;;;;;18.00;13.25;;;14.60;99.90;;;;;;4855126;29;20215;-71
2023/08/27 05:29:29;;;;;;;18.40;13.02;;;14.60;99.90;;;;;;4851271;29;20663;-71
2023/08/27 05:31:56;;;;;;;17.65;12.63;;;14.60;99.90;;;;;;4855218;29;20236;-70
2023/08/27 05:34:25;;;;;;;13.50;12.02;;;14.60;99.90;;;;;;4861626;29;20233;-70
2023/08/27 05:36:51;;;;;;;12.30;10.93;;;14.60;99.90;;;;;;4856565;29;20553;-72
2023/08/27 05:39:17;;;;;;;14.15;11.38;;;14.70;99.90;;;;;;4853620;29;20201;-70
2023/08/27 05:41:43;;;;;;;19.00;11.40;;;14.70;99.90;;;;;;4855663;29;20646;-69
2023/08/27 05:44:09;;;;;;;14.48;10.73;;;14.80;99.90;;;;;;4872126;29;20193;-68
2023/08/27 05:46:35;;;;;;;16.10;10.93;;;14.80;99.90;;;;;;4863958;29;20235;-67
2023/08/27 05:49:01;;;;;;;16.65;11.43;;;14.90;99.90;;;;;;4873739;29;20200;-65
2023/08/27 05:51:28;;;;;;;11.40;10.15;;;15.00;99.90;;;;;;4852894;29;20196;-70
2023/08/27 05:53:55;;;;;;;11.25;9.80;;;15.10;99.90;;;;;;4872944;29;20280;-71
2023/08/27 05:56:22;;;;;;;12.73;9.98;;;15.20;99.90;;;;;;4841298;29;20186;-72
2023/08/27 05:58:48;;;;;;;12.65;9.48;;;15.40;99.90;;;;;;4838704;29;20229;-67
2023/08/27 06:01:15;;;;;;;11.90;9.40;;;15.40;99.90;;;;;;4865777;29;20214;-67
2023/08/27 06:03:42;;;;;;;11.93;9.68;;;15.60;99.90;;;;;;4852721;29;20186;-74
2023/08/27 06:06:08;;;;;;;12.82;9.52;;;15.60;99.90;;;;;;4853676;29;20226;-70
2023/08/27 06:08:34;;;;;;;12.80;10.15;;;15.70;99.90;;;;;;4844753;29;20222;-70
2023/08/27 06:11:01;;;;;;;11.75;9.73;;;15.70;99.90;;;;;;4855237;29;20197;-70
2023/08/27 06:13:28;;;;;;;13.63;9.90;;;15.80;99.90;;;;;;4858361;29;20198;-69
2023/08/27 06:15:54;;;;;;;11.18;9.18;;;15.80;99.90;;;;;;4852464;29;20214;-67
2023/08/27 06:18:19;;;;;;;10.65;9.40;;;15.80;99.90;;;;;;4862358;29;20706;-69
2023/08/27 06:20:45;;;;;;;10.68;8.80;;;15.80;99.90;;;;;;4863904;29;20191;-68
2023/08/27 06:23:12;;;;;;;11.80;9.30;;;15.90;99.90;;;;;;4857046;29;20348;-70
2023/08/27 06:25:38;;;;;;;11.20;9.63;;;15.90;99.90;;;;;;4849245;29;20194;-67
2023/08/27 06:28:05;;;;;;;13.15;9.18;;;16.00;99.90;;;;;;4869445;29;20281;-68
2023/08/27 06:30:32;;;;;;;12.70;9.05;;;16.00;99.90;;;;;;4871878;29;20546;-71
2023/08/27 06:33:01;;;;;;;9.27;8.25;;;16.10;99.90;;;;;;4857754;29;20185;-67
2023/08/27 06:35:27;;;;;;;10.63;8.93;;;16.10;99.90;;;;;;4856759;29;20230;-68
2023/08/27 06:37:53;;;;;;;11.07;8.45;;;16.20;99.90;;;;;;4852786;29;20202;-70
2023/08/27 06:40:19;;;;;;;9.52;7.85;;;16.20;99.90;;;;;;4852726;29;20205;-68
2023/08/27 06:42:45;;;;;;;10.25;8.20;;;16.20;99.90;;;;;;4852784;29;20190;-67
2023/08/27 06:45:17;;;;;;;13.23;7.90;;;16.20;99.90;;;;;;4854817;29;20190;-68
2023/08/27 06:47:44;;;;;;;12.10;8.65;;;16.30;99.90;;;;;;4854619;29;20697;-68
2023/08/27 06:50:10;;;;;;;12.70;8.57;;;16.30;99.90;;;;;;4854395;29;20194;-71
2023/08/27 06:52:36;;;;;;;13.00;8.63;;;16.30;99.90;;;;;;4858887;29;20198;-71
2023/08/27 06:55:03;;;;;;;14.27;7.78;;;16.30;99.90;;;;;;4858282;29;20545;-70
2023/08/27 06:57:29;;;;;;;10.05;7.53;;;16.30;99.90;;;;;;4857208;29;20190;-70
2023/08/27 06:59:55;;;;;;;13.02;8.15;;;16.30;99.90;;;;;;4851883;29;20265;-70
2023/08/27 07:02:21;;;;;;;9.35;7.00;;;16.30;99.90;;;;;;4855942;29;20194;-70
2023/08/27 07:04:47;;;;;;;10.02;7.10;;;16.30;99.90;;;;;;4858526;29;20194;-70
2023/08/27 07:07:14;;;;;;;9.23;6.22;;;16.30;99.90;;;;;;4840097;29;20226;-70
2023/08/27 07:09:39;;;;;;;10.27;6.50;;;16.40;99.90;;;;;;4852609;29;20269;-69
2023/08/27 07:12:06;;;;;;;13.50;6.47;;;16.40;99.90;;;;;;4856727;29;20285;-70
2023/08/27 07:14:32;;;;;;;8.25;6.65;;;16.40;99.90;;;;;;4852228;29;20643;-69
2023/08/27 07:16:58;;;;;;;7.15;6.18;;;16.50;99.90;;;;;;4859324;29;20242;-71
2023/08/27 07:19:24;;;;;;;7.32;5.57;;;16.50;99.90;;;;;;4862310;29;20285;-69
2023/08/27 07:21:50;;;;;;;6.95;5.65;;;16.50;99.90;;;;;;4845133;29;20206;-71
2023/08/27 07:24:16;;;;;;;9.05;5.65;;;16.50;99.90;;;;;;4842827;29;20664;-71
2023/08/27 07:26:43;;;;;;;8.10;4.63;;;16.50;99.90;;;;;;4857949;29;20306;-71
2023/08/27 07:29:09;;;;;;;8.40;4.40;;;16.50;99.90;;;;;;4856830;29;20242;-70
2023/08/27 07:31:35;;;;;;;5.60;4.40;;;16.50;99.90;;;;;;4860614;29;20715;-70
2023/08/27 07:34:02;;;;;;;5.88;3.63;;;16.50;99.90;;;;;;4861561;29;20289;-70
2023/08/27 07:36:29;;;;;;;4.97;3.30;;;16.50;99.90;;;;;;4862406;29;20212;-70
2023/08/27 07:38:57;;;;;;;6.55;3.00;;;16.60;99.90;;;;;;4854939;29;20689;-69
2023/08/27 07:41:23;;;;;;;5.38;3.25;;;16.70;99.90;;;;;;4865368;29;20194;-69
2023/08/27 07:43:50;;;;;;;6.07;3.40;;;16.70;99.90;;;;;;4846285;29;20289;-69
2023/08/27 07:46:17;;;;;;;7.05;3.22;;;16.80;99.90;;;;;;4859812;29;20218;-69
2023/08/27 07:48:43;;;;;;;6.50;3.38;;;16.80;99.90;;;;;;4859507;29;20194;-71
2023/08/27 07:51:09;;;;;;;4.32;3.17;;;16.90;99.90;;;;;;4844106;29;20744;-70
2023/08/27 07:53:36;;;;;;;5.72;3.08;;;17.00;99.90;;;;;;4874824;29;20633;-70
2023/08/27 07:56:02;;;;;;;3.95;3.20;;;17.00;99.90;;;;;;4842669;29;20272;-70
2023/08/27 07:58:30;;;;;;;6.40;3.58;;;17.00;99.90;;;;;;4869842;29;20215;-70
2023/08/27 08:01:02;;;;;;;4.28;3.30;;;17.00;99.90;;;;;;4870817;29;20214;-69
2023/08/27 08:03:28;;;;;;;6.45;3.13;;;17.00;99.90;;;;;;4855257;29;20200;-68
2023/08/27 08:05:54;;;;;;;6.38;3.85;;;17.00;99.90;;;;;;4858155;29;20562;-71
2023/08/27 08:08:20;;;;;;;5.72;3.70;;;17.00;99.90;;;;;;4860319;29;20209;-69
2023/08/27 08:10:46;;;;;;;7.05;3.90;;;17.00;99.90;;;;;;4857605;29;20194;-71
2023/08/27 08:13:13;;;;;;;3.80;3.30;;;17.00;99.90;;;;;;4838094;29;20214;-69
2023/08/27 08:15:38;;;;;;;6.57;3.53;;;17.00;99.90;;;;;;4860760;29;20193;-69
2023/08/27 08:18:04;;;;;;;6.50;3.55;;;17.00;99.90;;;;;;4860770;29;20261;-69
2023/08/27 08:20:30;;;;;;;8.10;4.22;;;17.10;99.90;;;;;;4859485;29;20195;-70
2023/08/27 08:22:56;;;;;;;6.38;3.70;;;17.10;99.90;;;;;;4859893;29;20234;-70
2023/08/27 08:25:22;;;;;;;5.43;3.80;;;17.20;99.90;;;;;;4858026;29;20198;-69
2023/08/27 08:27:48;;;;;;;6.90;3.60;;;17.30;99.90;;;;;;4853866;29;20232;-71
2023/08/27 08:30:14;;;;;;;6.03;3.65;;;17.30;99.90;;;;;;4859347;29;20273;-70
2023/08/27 08:32:40;;;;;;;5.35;3.88;;;17.30;99.90;;;;;;4860995;29;20202;-70
2023/08/27 08:35:07;;;;;;;8.00;4.22;;;17.40;99.90;;;;;;4856912;29;20293;-71
2023/08/27 08:37:33;;;;;;;5.40;3.40;;;17.50;99.90;;;;;;4855853;29;20213;-70
2023/08/27 08:39:59;;;;;;;6.78;4.07;;;17.50;99.90;;;;;;4858338;29;20197;-70
2023/08/27 08:42:57;;;;;;;6.05;3.53;;;17.60;99.90;;;;;;4856653;29;20193;-70
2023/08/27 08:45:32;;;;;;;5.80;3.40;;;17.60;99.90;;;;;;4864701;29;20194;-70
2023/08/27 08:48:01;;;;;;;9.05;3.53;;;17.60;99.90;;;;;;4861052;29;20217;-71
2023/08/27 08:50:32;;;;;;;4.57;3.38;;;17.60;99.90;;;;;;4860293;29;20221;-67
2023/08/27 08:53:04;;;;;;;4.55;3.38;;;17.70;99.90;;;;;;4858006;29;20205;-68
2023/08/27 08:55:32;;;;;;;5.60;3.42;;;17.80;99.90;;;;;;4878122;29;20197;-67
2023/08/27 08:58:05;;;;;;;3.53;2.90;;;17.90;99.90;;;;;;4857795;29;20556;-70
2023/08/27 09:00:31;;;;;;;8.40;3.38;;;17.90;99.90;;;;;;4855031;29;20201;-67
2023/08/27 09:03:01;;;;;;;4.68;3.08;;;17.90;99.90;;;;;;4858577;29;20190;-70
2023/08/27 09:05:29;;;;;;;4.13;2.80;;;18.00;99.90;;;;;;4852578;29;20201;-70
2023/08/27 09:07:55;;;;;;;5.25;2.65;;;18.10;99.90;;;;;;4859355;29;20270;-71
2023/08/27 09:10:24;;;;;;;8.18;2.97;;;18.10;99.90;;;;;;4860677;29;20204;-69
2023/08/27 09:12:56;;;;;;;6.03;2.63;;;18.20;99.90;;;;;;4854994;29;20246;-71
2023/08/27 09:15:22;;;;;;;6.07;2.70;;;18.30;99.90;;;;;;4860194;29;20198;-69
2023/08/27 09:17:48;;;;;;;3.40;2.33;;;18.50;99.90;;;;;;4859703;29;20221;-70
2023/08/27 09:20:14;;;;;;;7.03;2.60;;;18.60;99.90;;;;;;4871816;29;20198;-70
2023/08/27 09:22:41;;;;;;;4.10;2.65;;;18.60;99.90;;;;;;4859094;29;20226;-70
2023/08/27 09:25:09;;;;;;;5.95;2.63;;;18.70;99.90;;;;;;4859168;29;20265;-68
2023/08/27 09:27:35;;;;;;;4.72;2.25;;;18.80;99.90;;;;;;4860157;29;20205;-70
2023/08/27 09:30:03;;;;;;;5.57;2.13;;;18.90;99.90;;;;;;4858621;29;20206;-70
2023/08/27 09:32:30;;;;;;;3.55;2.10;;;18.90;99.90;;;;;;4859407;29;20204;-70
2023/08/27 09:35:01;;;;;;;3.22;2.13;;;19.00;99.90;;;;;;4856287;29;20202;-70
2023/08/27 09:37:28;;;;;;;3.75;2.60;;;19.00;99.90;;;;;;4858399;29;20205;-70
2023/08/27 09:39:55;;;;;;;3.33;2.13;;;19.10;99.90;;;;;;4859479;29;20193;-70
2023/08/27 09:42:29;;;;;;;3.78;2.40;;;19.20;99.90;;;;;;4856963;29;20198;-73
2023/08/27 09:44:56;;;;;;;3.53;2.00;;;19.30;99.90;;;;;;4858701;29;20253;-70
2023/08/27 09:47:39;;;;;;;5.50;2.38;;;19.40;99.90;;;;;;4858047;29;20221;-68
2023/08/27 09:50:23;;;;;;;3.08;1.85;;;19.60;99.90;;;;;;4855915;29;20210;-70
2023/08/27 09:52:49;;;;;;;3.63;2.28;;;19.70;99.90;;;;;;4850523;29;20193;-69
2023/08/27 09:55:18;;;;;;;3.15;2.20;;;19.80;99.90;;;;;;4856751;29;20225;-70
2023/08/27 09:57:49;;;;;;;3.17;1.90;;;19.90;99.90;;;;;;4852557;29;20530;-70
2023/08/27 10:00:17;;;;;;;4.68;2.38;;;20.00;99.90;;;;;;4854646;29;20674;-69
2023/08/27 10:02:44;;;;;;;3.85;2.40;;;20.10;99.90;;;;;;4854498;29;20197;-68
2023/08/27 10:05:10;;;;;;;4.60;2.38;;;20.20;99.90;;;;;;4857101;29;20198;-67
2023/08/27 10:07:36;;;;;;;4.45;2.17;;;20.30;99.90;;;;;;4852641;29;20213;-72
2023/08/27 10:10:05;;;;;;;6.35;2.17;;;20.40;99.90;;;;;;4853120;29;20206;-72
2023/08/27 10:12:32;;;;;;;4.75;2.15;;;20.50;99.90;;;;;;4853206;29;20241;-71
2023/08/27 10:15:01;;;;;;;3.28;2.13;;;20.50;99.90;;;;;;4857256;29;20280;-69
2023/08/27 10:17:28;;;;;;;4.25;2.90;;;20.60;99.90;;;;;;4857986;29;20205;-70
2023/08/27 10:19:55;;;;;;;13.68;2.58;;;20.70;99.90;;;;;;4853531;29;20190;-72
2023/08/27 10:22:22;;;;;;;3.30;1.70;;;20.70;99.90;;;;;;4857825;29;20234;-70
2023/08/27 10:24:50;;;;;;;7.47;3.20;;;20.70;99.90;;;;;;4852833;29;20201;-69
2023/08/27 10:27:17;;;;;;;10.45;6.55;;;20.80;99.90;;;;;;4858026;29;20221;-69
2023/08/27 10:29:46;;;;;;;13.25;10.00;;;20.80;99.90;;;;;;4854878;29;20198;-70
2023/08/27 10:32:13;;;;;;;8.10;4.55;;;20.80;99.90;;;;;;4858664;29;20675;-69
2023/08/27 10:34:39;;;;;;;5.38;3.08;;;20.80;99.90;;;;;;4858706;29;20223;-70
2023/08/27 10:37:09;;;;;;;3.13;2.20;;;20.70;99.90;;;;;;4860675;29;20297;-69
2023/08/27 10:39:37;;;;;;;4.20;2.30;;;20.70;99.90;;;;;;4856358;29;20193;-70
2023/08/27 10:42:04;;;;;;;4.07;2.17;;;20.70;99.90;;;;;;4856508;29;20277;-70
2023/08/27 10:44:30;;;;;;;2.67;1.67;;;20.70;99.90;;;;;;4858681;29;20704;-70
2023/08/27 10:47:17;;;;;;;5.28;1.80;;;20.70;99.90;;;;;;4858486;29;20224;-69
2023/08/27 10:49:48;;;;;;;4.47;1.88;;;20.80;99.90;;;;;;4857647;29;20213;-69
2023/08/27 10:52:17;;;;;;;2.88;1.80;;;21.00;99.90;;;;;;4860119;29;20278;-67
2023/08/27 10:54:46;;;;;;;5.78;1.85;;;21.20;99.90;;;;;;4859371;29;20305;-68
2023/08/27 10:57:20;;;;;;;4.57;3.13;;;21.30;99.90;;;;;;4862528;29;20189;-67
2023/08/27 10:59:46;;;;;;;3.78;2.50;;;21.60;99.90;;;;;;4856994;29;20532;-68
2023/08/27 11:02:14;;;;;;;4.65;1.90;;;21.70;99.90;;;;;;4862259;29;20190;-69
2023/08/27 11:04:43;;;;;;;3.75;1.90;;;21.80;99.90;;;;;;4861591;29;20222;-69
2023/08/27 11:07:22;;;;;;;3.22;2.00;;;21.90;99.90;;;;;;4862955;29;20210;-68
2023/08/27 11:09:56;;;;;;;3.78;1.90;;;21.80;99.90;;;;;;4861035;29;20186;-68
2023/08/27 11:12:34;;;;;;;4.03;2.10;;;21.80;99.90;;;;;;4860529;29;20181;-68
2023/08/27 11:15:14;;;;;;;3.28;1.92;;;21.70;99.90;;;;;;4861640;29;20242;-68
2023/08/27 11:17:40;;;;;;;10.07;2.80;;;21.60;99.90;;;;;;4862298;29;20212;-69
2023/08/27 11:20:27;;;;;;;4.03;2.50;;;21.40;99.90;;;;;;4862946;29;20200;-69
2023/08/27 11:22:56;;;;;;;6.72;2.90;;;21.20;99.90;;;;;;4844197;29;20261;-69
2023/08/27 11:25:28;;;;;;;13.25;3.70;;;21.10;99.90;;;;;;4855131;29;20293;-70
2023/08/27 11:27:55;;;;;;;8.05;3.38;;;20.80;99.90;;;;;;4860449;29;20345;-70
2023/08/27 11:30:26;;;;;;;9.00;3.80;;;20.60;99.90;;;;;;4859642;29;20197;-71
2023/08/27 11:32:53;;;;;;;6.10;3.10;;;20.40;99.90;;;;;;4859448;29;20277;-70
2023/08/27 11:35:26;;;;;;;6.63;2.90;;;20.30;99.90;;;;;;4862114;29;20684;-69
2023/08/27 11:37:56;;;;;;;4.40;2.47;;;20.30;99.90;;;;;;4861340;29;20204;-69
2023/08/27 11:40:23;;;;;;;5.28;2.42;;;20.30;99.90;;;;;;4860757;29;20216;-71
2023/08/27 11:42:53;;;;;;;4.78;2.72;;;20.40;99.90;;;;;;4861378;29;20201;-71
2023/08/27 11:45:37;;;;;;;4.97;2.45;;;20.40;99.90;;;;;;4860353;29;20186;-68
2023/08/27 11:48:05;;;;;;;5.25;3.30;;;20.60;99.90;;;;;;4850092;29;20279;-68
2023/08/27 11:50:38;;;;;;;3.28;2.60;;;20.70;99.90;;;;;;4857062;29;20260;-68
2023/08/27 11:53:05;;;;;;;5.05;3.10;;;20.70;99.90;;;;;;4861522;29;20234;-67
2023/08/27 11:55:31;;;;;;;4.90;2.75;;;20.70;99.90;;;;;;4860310;29;20261;-68
2023/08/27 11:57:58;;;;;;;3.72;2.50;;;20.70;99.90;;;;;;4878980;29;20604;-70
2023/08/27 12:00:25;;;;;;;3.97;1.88;;;20.70;99.90;;;;;;4857548;29;20243;-74
2023/08/27 12:02:51;;;;;;;3.75;1.70;;;20.50;99.90;;;;;;4859381;29;20254;-69
2023/08/27 12:05:18;;;;;;;2.05;1.33;;;20.30;99.90;;;;;;4837437;29;20651;-71
2023/08/27 12:07:44;;;;;;;5.10;1.42;;;20.10;99.90;;;;;;4857312;29;20220;-69
2023/08/27 12:10:13;;;;;;;1.80;1.40;;;19.90;99.90;;;;;;4856773;29;20199;-70
2023/08/27 12:12:40;;;;;;;2.92;1.30;;;19.80;99.90;;;;;;4859878;29;20218;-70
2023/08/27 12:15:07;;;;;;;1.70;1.20;;;19.50;99.90;;;;;;4859491;29;20280;-69
2023/08/27 12:17:37;;;;;;;3.03;1.30;;;19.30;99.90;;;;;;4855747;29;20308;-70
2023/08/27 12:20:05;;;;;;;1.80;1.20;;;19.10;99.90;;;;;;4854303;29;20201;-70
2023/08/27 12:22:44;;;;;;;2.20;1.30;;;18.80;99.90;;;;;;4861407;29;20289;-70
2023/08/27 12:25:11;;;;;;;1.77;1.13;;;18.70;99.90;;;;;;4860872;29;20229;-69
2023/08/27 12:27:38;;;;;;;3.40;1.17;;;18.50;99.90;;;;;;4860459;29;20209;-66
2023/08/27 12:30:06;;;;;;;1.73;1.02;;;18.20;99.90;;;;;;4860019;29;20255;-69
2023/08/27 12:32:34;;;;;;;2.30;1.08;;;17.90;99.90;;;;;;4859072;29;20279;-70
2023/08/27 12:35:01;;;;;;;0.80;0.80;;;17.70;99.90;;;;;;4853984;29;20198;-70
2023/08/27 12:37:27;;;;;;;1.27;0.80;;;17.60;99.90;;;;;;4858998;29;20218;-68